Terminal Aerodrome Forecast
Issued by NWS Sterling, VA

Current Version | Previous Version | Graphics & Text | Print | Product List | Glossary On
Versions: 1 2 3 4 5 6 7 8 9 10 11 12 13 14
000
FTUS41 KLWX 241700
TAFDCA
TAF
KDCA 241737Z 2418/2518 17006KT 2SM RA BR OVC008 WS020/18045KT
     FM242100 17012KT 3SM -RA BR OVC008
     FM242300 18014KT 3SM BR OVC008 WS020/22045KT
     FM250300 20014KT 2SM SHRA BR VCTS OVC008CB
     FM250600 24014KT 3SM SHRA BR OVC010
     FM250800 27013KT P6SM OVC050
     FM251400 28012G20KT P6SM SCT250
     FM251500 28013G25KT P6SM SCT030=

USA.gov is the U.S. government's official web portal to all federal, state and local government web resources and services.